SHT310 EGPK-EGGD
Flight info
| Callsign | SHT310 |
|---|---|
| Flight time | N/A |
| Altitude | 33000 |
| Route | SUDBY Z249 OSMEG T256 DCS DCT ADZOP DCT EGTOC DCT NOKIN N862 KARNO DCT ALHUP DCT LUCSA N862 WEVBE |
| Aircraft | A20N/M-SDE2E3FGHIRWXY/LB1 |
Departure
| Time | 2026-05-07 07:59 |
|---|---|
| Airport | Glasgow Prestwick Airport (EGPK) |
Arrival
| Time | N/A |
|---|---|
| Airport | Bristol Airport (EGGD) |
| Time | Latitude | Longitude | Altitude | Speed | Heading |
|---|---|---|---|---|---|
| 2026-05-07 07:38 | 55.51098 | -4.60946 | 34 ft | 0 kts | 122° |
| 2026-05-07 07:51 | 55.51098 | -4.60947 | 34 ft | 1 kts | 122° |
| 2026-05-07 07:51 | 55.51106 | -4.60967 | 35 ft | 2 kts | 122° |
| 2026-05-07 07:51 | 55.51111 | -4.60981 | 35 ft | 2 kts | 122° |
| 2026-05-07 07:51 | 55.51118 | -4.61004 | 35 ft | 2 kts | 108° |
| 2026-05-07 07:52 | 55.51122 | -4.61029 | 35 ft | 2 kts | 98° |
| 2026-05-07 07:52 | 55.51122 | -4.61055 | 35 ft | 2 kts | 86° |
| 2026-05-07 07:52 | 55.51121 | -4.61079 | 34 ft | 2 kts | 76° |
| 2026-05-07 07:52 | 55.51116 | -4.61104 | 34 ft | 2 kts | 65° |
| 2026-05-07 07:53 | 55.51109 | -4.61126 | 34 ft | 2 kts | 54° |
| 2026-05-07 07:53 | 55.51101 | -4.61144 | 33 ft | 1 kts | 43° |
| 2026-05-07 07:53 | 55.51096 | -4.61152 | 33 ft | 1 kts | 40° |
| 2026-05-07 07:53 | 55.51095 | -4.61152 | 33 ft | 0 kts | 41° |
| 2026-05-07 07:55 | 55.51096 | -4.61151 | 33 ft | 1 kts | 41° |
| 2026-05-07 07:55 | 55.51123 | -4.61100 | 34 ft | 9 kts | 50° |
| 2026-05-07 07:55 | 55.51161 | -4.61011 | 35 ft | 9 kts | 54° |
| 2026-05-07 07:56 | 55.51200 | -4.60921 | 35 ft | 10 kts | 37° |
| 2026-05-07 07:56 | 55.51255 | -4.60956 | 36 ft | 10 kts | 304° |
| 2026-05-07 07:56 | 55.51292 | -4.61064 | 36 ft | 11 kts | 300° |
| 2026-05-07 07:56 | 55.51334 | -4.61191 | 35 ft | 13 kts | 300° |
| 2026-05-07 07:57 | 55.51384 | -4.61336 | 34 ft | 14 kts | 301° |
| 2026-05-07 07:57 | 55.51449 | -4.61464 | 36 ft | 14 kts | 326° |
| 2026-05-07 07:57 | 55.51534 | -4.61536 | 37 ft | 14 kts | 351° |
| 2026-05-07 07:57 | 55.51607 | -4.61459 | 38 ft | 14 kts | 77° |
| 2026-05-07 07:58 | 55.51590 | -4.61345 | 38 ft | 0 kts | 118° |
| 2026-05-07 07:58 | 55.51583 | -4.61323 | 38 ft | 9 kts | 120° |
| 2026-05-07 07:58 | 55.51446 | -4.60926 | 36 ft | 76 kts | 121° |
| 2026-05-07 07:58 | 55.51052 | -4.59784 | 31 ft | 140 kts | 122° |
| 2026-05-07 07:59 | 55.50503 | -4.58189 | 462 ft | 157 kts | 122° |
| 2026-05-07 07:59 | 55.50001 | -4.56484 | 1116 ft | 162 kts | 122° |
| 2026-05-07 07:59 | 55.49451 | -4.54774 | 1834 ft | 165 kts | 126° |
| 2026-05-07 07:59 | 55.48805 | -4.53021 | 2298 ft | 180 kts | 128° |
| 2026-05-07 08:00 | 55.48085 | -4.51105 | 2747 ft | 198 kts | 127° |
| 2026-05-07 08:00 | 55.47296 | -4.48950 | 3133 ft | 222 kts | 126° |
| 2026-05-07 08:00 | 55.46448 | -4.46574 | 3659 ft | 240 kts | 127° |
| 2026-05-07 08:00 | 55.45365 | -4.44264 | 4211 ft | 253 kts | 141° |
| 2026-05-07 08:01 | 55.43953 | -4.42426 | 5000 ft | 257 kts | 150° |
| 2026-05-07 08:01 | 55.42440 | -4.40761 | 5618 ft | 260 kts | 151° |
| 2026-05-07 08:01 | 55.40902 | -4.39103 | 5933 ft | 261 kts | 151° |
| 2026-05-07 08:01 | 55.39361 | -4.37440 | 5969 ft | 261 kts | 151° |
| 2026-05-07 08:02 | 55.37817 | -4.35767 | 5974 ft | 261 kts | 151° |
| 2026-05-07 08:02 | 55.36282 | -4.34100 | 5974 ft | 261 kts | 152° |
| 2026-05-07 08:02 | 55.34749 | -4.32434 | 5971 ft | 261 kts | 152° |
| 2026-05-07 08:02 | 55.33213 | -4.30766 | 5968 ft | 261 kts | 152° |
| 2026-05-07 08:03 | 55.31674 | -4.29096 | 5967 ft | 261 kts | 152° |
| 2026-05-07 08:03 | 55.30138 | -4.27432 | 5966 ft | 261 kts | 152° |
| 2026-05-07 08:03 | 55.28588 | -4.25754 | 6029 ft | 265 kts | 152° |
| 2026-05-07 08:03 | 55.27007 | -4.24047 | 6711 ft | 272 kts | 152° |
| 2026-05-07 08:04 | 55.25429 | -4.22340 | 7772 ft | 271 kts | 152° |
| 2026-05-07 08:04 | 55.23835 | -4.20619 | 8675 ft | 274 kts | 152° |
| 2026-05-07 08:04 | 55.22216 | -4.18872 | 9525 ft | 279 kts | 152° |
| 2026-05-07 08:04 | 55.20567 | -4.17095 | 10333 ft | 284 kts | 152° |
| 2026-05-07 08:05 | 55.18845 | -4.15247 | 10862 ft | 300 kts | 152° |
| 2026-05-07 08:05 | 55.17025 | -4.13295 | 11293 ft | 318 kts | 151° |
| 2026-05-07 08:05 | 55.15128 | -4.11137 | 11716 ft | 336 kts | 147° |
| 2026-05-07 08:05 | 55.13291 | -4.08551 | 12389 ft | 346 kts | 140° |
| 2026-05-07 08:06 | 55.11584 | -4.05610 | 13192 ft | 350 kts | 136° |
| 2026-05-07 08:06 | 55.09916 | -4.02541 | 13965 ft | 353 kts | 135° |
| 2026-05-07 08:06 | 55.08232 | -3.99420 | 14700 ft | 357 kts | 135° |
| 2026-05-07 08:06 | 55.06527 | -3.96262 | 15396 ft | 362 kts | 135° |
| 2026-05-07 08:07 | 55.04797 | -3.93076 | 16075 ft | 367 kts | 135° |
| 2026-05-07 08:07 | 55.03046 | -3.89858 | 16733 ft | 371 kts | 136° |
| 2026-05-07 08:07 | 55.01268 | -3.86600 | 17382 ft | 375 kts | 136° |
| 2026-05-07 08:07 | 54.99466 | -3.83310 | 18017 ft | 379 kts | 136° |
| 2026-05-07 08:08 | 54.97654 | -3.80004 | 18639 ft | 383 kts | 136° |
| 2026-05-07 08:08 | 54.95813 | -3.76655 | 19270 ft | 387 kts | 136° |
| 2026-05-07 08:08 | 54.93958 | -3.73282 | 19881 ft | 391 kts | 136° |
| 2026-05-07 08:08 | 54.92073 | -3.69860 | 20474 ft | 395 kts | 136° |
| 2026-05-07 08:09 | 54.90182 | -3.66433 | 21067 ft | 398 kts | 136° |
| 2026-05-07 08:09 | 54.88267 | -3.62968 | 21649 ft | 402 kts | 135° |
| 2026-05-07 08:09 | 54.86333 | -3.59474 | 22214 ft | 405 kts | 135° |
| 2026-05-07 08:09 | 54.84385 | -3.55960 | 22769 ft | 409 kts | 135° |
| 2026-05-07 08:10 | 54.82416 | -3.52415 | 23331 ft | 411 kts | 135° |
| 2026-05-07 08:10 | 54.80435 | -3.48850 | 23876 ft | 414 kts | 135° |
| 2026-05-07 08:10 | 54.78434 | -3.45254 | 24389 ft | 417 kts | 135° |
| 2026-05-07 08:10 | 54.76421 | -3.41645 | 24890 ft | 420 kts | 135° |
| 2026-05-07 08:11 | 54.74373 | -3.38072 | 25388 ft | 422 kts | 139° |
| 2026-05-07 08:11 | 54.71965 | -3.35249 | 25816 ft | 422 kts | 155° |
| 2026-05-07 08:11 | 54.69216 | -3.33604 | 26271 ft | 421 kts | 170° |
| 2026-05-07 08:11 | 54.66324 | -3.32985 | 26734 ft | 421 kts | 176° |
| 2026-05-07 08:12 | 54.63411 | -3.32557 | 27148 ft | 424 kts | 177° |
| 2026-05-07 08:12 | 54.60473 | -3.32137 | 27542 ft | 427 kts | 176° |
| 2026-05-07 08:12 | 54.57515 | -3.31702 | 27938 ft | 430 kts | 176° |
| 2026-05-07 08:12 | 54.54546 | -3.31252 | 28418 ft | 430 kts | 176° |
| 2026-05-07 08:13 | 54.51592 | -3.30794 | 29001 ft | 428 kts | 176° |
| 2026-05-07 08:13 | 54.48644 | -3.30335 | 29572 ft | 425 kts | 176° |
| 2026-05-07 08:13 | 54.45729 | -3.29879 | 30087 ft | 424 kts | 176° |
| 2026-05-07 08:13 | 54.42805 | -3.29422 | 30584 ft | 423 kts | 176° |
| 2026-05-07 08:14 | 54.39898 | -3.28965 | 31066 ft | 422 kts | 176° |
| 2026-05-07 08:14 | 54.36997 | -3.28512 | 31528 ft | 421 kts | 176° |
| 2026-05-07 08:14 | 54.34091 | -3.28056 | 31908 ft | 422 kts | 176° |
| 2026-05-07 08:14 | 54.31180 | -3.27601 | 32240 ft | 424 kts | 175° |
| 2026-05-07 08:15 | 54.28254 | -3.27144 | 32553 ft | 425 kts | 175° |
| 2026-05-07 08:15 | 54.25313 | -3.26685 | 32865 ft | 427 kts | 175° |
| 2026-05-07 08:15 | 54.22373 | -3.26226 | 32983 ft | 428 kts | 175° |
| 2026-05-07 08:16 | 54.16474 | -3.25306 | 32989 ft | 428 kts | 175° |
| 2026-05-07 08:16 | 54.10578 | -3.24375 | 32994 ft | 428 kts | 175° |
| 2026-05-07 08:17 | 54.04666 | -3.23446 | 33001 ft | 428 kts | 175° |
| 2026-05-07 08:17 | 53.98769 | -3.22181 | 33003 ft | 429 kts | 170° |
| 2026-05-07 08:18 | 53.92971 | -3.20038 | 33010 ft | 429 kts | 167° |
| 2026-05-07 08:18 | 53.87168 | -3.17835 | 33012 ft | 429 kts | 168° |
| 2026-05-07 08:19 | 53.81372 | -3.15644 | 33015 ft | 428 kts | 167° |
| 2026-05-07 08:19 | 53.75608 | -3.13471 | 33012 ft | 428 kts | 167° |
| 2026-05-07 08:20 | 53.69843 | -3.11303 | 33014 ft | 427 kts | 167° |
| 2026-05-07 08:20 | 53.64097 | -3.09149 | 33014 ft | 426 kts | 167° |
| 2026-05-07 08:21 | 53.58335 | -3.06992 | 33015 ft | 427 kts | 167° |
| 2026-05-07 08:21 | 53.52567 | -3.04842 | 33017 ft | 427 kts | 167° |
| 2026-05-07 08:22 | 53.46794 | -3.02695 | 33023 ft | 426 kts | 167° |
| 2026-05-07 08:22 | 53.41030 | -3.00557 | 33029 ft | 426 kts | 166° |
| 2026-05-07 08:23 | 53.35267 | -2.98424 | 33031 ft | 426 kts | 166° |
| 2026-05-07 08:23 | 53.29496 | -2.96296 | 33029 ft | 427 kts | 166° |
| 2026-05-07 08:24 | 53.23727 | -2.94170 | 33028 ft | 426 kts | 166° |
| 2026-05-07 08:24 | 53.17956 | -2.92055 | 33029 ft | 427 kts | 166° |
| 2026-05-07 08:25 | 53.12159 | -2.90012 | 33027 ft | 428 kts | 168° |
| 2026-05-07 08:25 | 53.06265 | -2.88840 | 33025 ft | 430 kts | 175° |
| 2026-05-07 08:26 | 52.97319 | -2.89182 | 32318 ft | 430 kts | 181° |
| 2026-05-07 08:26 | 52.94359 | -2.89419 | 31793 ft | 428 kts | 181° |
| 2026-05-07 08:26 | 52.91402 | -2.89670 | 31170 ft | 427 kts | 182° |
| 2026-05-07 08:27 | 52.88455 | -2.90089 | 30503 ft | 429 kts | 185° |
| 2026-05-07 08:27 | 52.85508 | -2.90764 | 29810 ft | 429 kts | 186° |
| 2026-05-07 08:27 | 52.82575 | -2.91456 | 29099 ft | 430 kts | 186° |
| 2026-05-07 08:27 | 52.79622 | -2.92141 | 28377 ft | 430 kts | 186° |
| 2026-05-07 08:28 | 52.76683 | -2.92824 | 27645 ft | 431 kts | 186° |
| 2026-05-07 08:28 | 52.73742 | -2.93512 | 27132 ft | 426 kts | 186° |
| 2026-05-07 08:28 | 52.70836 | -2.94075 | 26645 ft | 420 kts | 183° |
| 2026-05-07 08:28 | 52.67946 | -2.94370 | 26148 ft | 416 kts | 181° |
| 2026-05-07 08:29 | 52.65083 | -2.94605 | 25646 ft | 412 kts | 181° |
| 2026-05-07 08:29 | 52.62257 | -2.94844 | 25150 ft | 408 kts | 181° |
| 2026-05-07 08:29 | 52.59440 | -2.95079 | 24654 ft | 405 kts | 181° |
| 2026-05-07 08:29 | 52.56655 | -2.95307 | 24160 ft | 402 kts | 181° |
| 2026-05-07 08:30 | 52.53889 | -2.95535 | 23672 ft | 399 kts | 181° |
| 2026-05-07 08:30 | 52.51134 | -2.95759 | 23183 ft | 396 kts | 181° |
| 2026-05-07 08:30 | 52.48414 | -2.95982 | 22692 ft | 394 kts | 181° |
| 2026-05-07 08:30 | 52.45699 | -2.96205 | 22198 ft | 391 kts | 181° |
| 2026-05-07 08:31 | 52.43007 | -2.96426 | 21707 ft | 388 kts | 182° |
| 2026-05-07 08:31 | 52.40333 | -2.96647 | 21213 ft | 386 kts | 182° |
| 2026-05-07 08:31 | 52.37671 | -2.96866 | 20719 ft | 383 kts | 182° |
| 2026-05-07 08:31 | 52.35034 | -2.97083 | 20229 ft | 381 kts | 182° |
| 2026-05-07 08:32 | 52.32412 | -2.97298 | 19732 ft | 378 kts | 182° |
| 2026-05-07 08:32 | 52.29812 | -2.97510 | 19243 ft | 375 kts | 182° |
| 2026-05-07 08:32 | 52.27226 | -2.97720 | 18758 ft | 372 kts | 183° |
| 2026-05-07 08:32 | 52.24663 | -2.97927 | 18263 ft | 370 kts | 183° |
| 2026-05-07 08:33 | 52.22120 | -2.98137 | 17777 ft | 367 kts | 183° |
| 2026-05-07 08:33 | 52.19592 | -2.98345 | 17300 ft | 364 kts | 183° |
| 2026-05-07 08:33 | 52.17081 | -2.98550 | 16809 ft | 362 kts | 183° |
| 2026-05-07 08:33 | 52.14594 | -2.98752 | 16332 ft | 359 kts | 183° |
| 2026-05-07 08:34 | 52.12120 | -2.98953 | 15878 ft | 355 kts | 182° |
| 2026-05-07 08:34 | 52.09676 | -2.99150 | 15855 ft | 354 kts | 183° |
| 2026-05-07 08:34 | 52.07223 | -2.99349 | 15877 ft | 354 kts | 182° |
| 2026-05-07 08:34 | 52.04771 | -2.99547 | 15905 ft | 355 kts | 182° |
| 2026-05-07 08:35 | 52.02314 | -2.99746 | 15932 ft | 354 kts | 182° |
| 2026-05-07 08:35 | 51.99861 | -2.99943 | 15940 ft | 354 kts | 182° |
| 2026-05-07 08:35 | 51.97402 | -3.00122 | 15503 ft | 356 kts | 180° |
| 2026-05-07 08:35 | 51.94952 | -2.99810 | 14959 ft | 355 kts | 170° |
| 2026-05-07 08:36 | 51.92605 | -2.98827 | 14815 ft | 347 kts | 161° |
| 2026-05-07 08:36 | 51.90380 | -2.97527 | 14779 ft | 337 kts | 160° |
| 2026-05-07 08:36 | 51.88205 | -2.96212 | 14434 ft | 331 kts | 160° |
| 2026-05-07 08:36 | 51.86081 | -2.94926 | 14110 ft | 324 kts | 160° |
| 2026-05-07 08:37 | 51.84000 | -2.93673 | 13796 ft | 318 kts | 160° |
| 2026-05-07 08:37 | 51.81955 | -2.92448 | 13491 ft | 311 kts | 160° |
| 2026-05-07 08:37 | 51.79953 | -2.91252 | 13205 ft | 305 kts | 160° |
| 2026-05-07 08:37 | 51.77997 | -2.90088 | 12922 ft | 299 kts | 160° |
| 2026-05-07 08:38 | 51.76067 | -2.88939 | 12557 ft | 296 kts | 160° |
| 2026-05-07 08:38 | 51.74153 | -2.87801 | 12232 ft | 291 kts | 160° |
| 2026-05-07 08:38 | 51.72277 | -2.86685 | 11933 ft | 287 kts | 160° |
| 2026-05-07 08:38 | 51.70404 | -2.85692 | 11621 ft | 284 kts | 164° |
| 2026-05-07 08:39 | 51.68514 | -2.84858 | 11283 ft | 281 kts | 165° |
| 2026-05-07 08:39 | 51.66651 | -2.84049 | 11004 ft | 276 kts | 165° |
| 2026-05-07 08:39 | 51.64818 | -2.83255 | 10725 ft | 272 kts | 165° |
| 2026-05-07 08:39 | 51.63018 | -2.82476 | 10447 ft | 267 kts | 165° |
| 2026-05-07 08:40 | 51.61245 | -2.81708 | 10180 ft | 262 kts | 165° |
| 2026-05-07 08:40 | 51.59511 | -2.80958 | 9918 ft | 255 kts | 165° |
| 2026-05-07 08:40 | 51.57841 | -2.80236 | 9662 ft | 245 kts | 165° |
| 2026-05-07 08:40 | 51.56225 | -2.79538 | 9428 ft | 239 kts | 165° |
| 2026-05-07 08:41 | 51.54644 | -2.78855 | 9203 ft | 233 kts | 165° |
| 2026-05-07 08:41 | 51.53103 | -2.78191 | 8980 ft | 228 kts | 165° |
| 2026-05-07 08:41 | 51.51598 | -2.77541 | 8771 ft | 222 kts | 165° |
| 2026-05-07 08:41 | 51.50130 | -2.76908 | 8576 ft | 216 kts | 165° |
| 2026-05-07 08:42 | 51.48737 | -2.76307 | 8443 ft | 203 kts | 165° |
| 2026-05-07 08:42 | 51.47402 | -2.75732 | 8204 ft | 196 kts | 165° |
| 2026-05-07 08:42 | 51.46121 | -2.75180 | 7997 ft | 188 kts | 166° |
| 2026-05-07 08:42 | 51.44899 | -2.74653 | 7810 ft | 178 kts | 166° |
| 2026-05-07 08:43 | 51.43733 | -2.74150 | 7620 ft | 170 kts | 166° |
| 2026-05-07 08:43 | 51.42636 | -2.73671 | 7425 ft | 162 kts | 166° |
| 2026-05-07 08:43 | 51.41580 | -2.73208 | 7229 ft | 156 kts | 166° |
| 2026-05-07 08:43 | 51.40536 | -2.72750 | 7055 ft | 157 kts | 166° |
| 2026-05-07 08:44 | 51.39491 | -2.72293 | 6879 ft | 157 kts | 166° |
| 2026-05-07 08:44 | 51.38497 | -2.71618 | 6691 ft | 158 kts | 143° |
| 2026-05-07 08:44 | 51.37706 | -2.70400 | 6527 ft | 159 kts | 134° |
| 2026-05-07 08:44 | 51.36981 | -2.69077 | 6350 ft | 159 kts | 132° |
| 2026-05-07 08:45 | 51.36270 | -2.67745 | 6172 ft | 158 kts | 132° |
| 2026-05-07 08:45 | 51.35566 | -2.66421 | 5996 ft | 157 kts | 131° |
| 2026-05-07 08:45 | 51.35067 | -2.64894 | 5795 ft | 159 kts | 95° |
| 2026-05-07 08:45 | 51.35383 | -2.63244 | 5633 ft | 162 kts | 47° |
| 2026-05-07 08:46 | 51.36364 | -2.62468 | 5510 ft | 162 kts | 359° |
| 2026-05-07 08:46 | 51.37396 | -2.63034 | 5399 ft | 160 kts | 321° |
| 2026-05-07 08:46 | 51.38192 | -2.64251 | 5271 ft | 158 kts | 296° |
| 2026-05-07 08:46 | 51.38434 | -2.65879 | 5042 ft | 152 kts | 269° |
| 2026-05-07 08:47 | 51.38416 | -2.67558 | 4713 ft | 154 kts | 265° |
| 2026-05-07 08:47 | 51.38386 | -2.69257 | 4398 ft | 155 kts | 266° |
| 2026-05-07 08:47 | 51.38382 | -2.69682 | 4321 ft | 155 kts | 266° |